Time;durP1;ratioP1;P1;durP2;ratioP2;P2;SDS_P1;SDS_P2;PMS_P1;PMS_P2;Temp;Humidity;BMP_temperature;BMP_pressure;BME280_temperature;BME280_humidity;BME280_pressure;Samples;Min_cycle;Max_cycle;Signal;HPM_P1;HPM_P2
2023/12/22 00:01:24;;;;;;;4.22;1.20;;;;;;;4.92;100.00;99214.34;4994053;28;20047;-64
2023/12/22 00:03:50;;;;;;;3.75;1.23;;;;;;;4.95;100.00;99198.63;5003236;28;20412;-64
2023/12/22 00:06:17;;;;;;;5.43;1.33;;;;;;;4.92;100.00;99203.97;4997746;28;20547;-64
2023/12/22 00:08:44;;;;;;;5.03;1.20;;;;;;;4.99;100.00;99196.75;4998073;28;20570;-64
2023/12/22 00:11:10;;;;;;;3.30;1.17;;;;;;;4.88;100.00;99197.19;4994596;28;20138;-64
2023/12/22 00:13:37;;;;;;;4.30;1.50;;;;;;;4.83;100.00;99190.50;4993075;28;20397;-64
2023/12/22 00:16:04;;;;;;;4.82;1.50;;;;;;;4.85;100.00;99196.47;5001335;28;20056;-64
2023/12/22 00:18:31;;;;;;;5.25;1.50;;;;;;;4.89;100.00;99188.50;5012273;28;20061;-64
2023/12/22 00:20:58;;;;;;;3.95;2.00;;;;;;;4.82;100.00;99192.25;4998449;28;20100;-64
2023/12/22 00:23:25;;;;;;;5.18;1.20;;;;;;;4.77;100.00;99183.78;5012579;28;20400;-64
2023/12/22 00:25:52;;;;;;;4.65;1.50;;;;;;;4.71;100.00;99186.59;5010782;28;20058;-64
2023/12/22 00:28:18;;;;;;;5.38;1.30;;;;;;;4.83;100.00;99187.91;4993669;28;20053;-64
2023/12/22 00:30:45;;;;;;;6.10;1.40;;;;;;;4.64;100.00;99174.78;5005165;28;21170;-64
2023/12/22 00:33:12;;;;;;;4.85;1.60;;;;;;;4.61;100.00;99165.41;5010187;28;20428;-64
2023/12/22 00:35:39;;;;;;;7.68;1.60;;;;;;;4.78;100.00;99174.25;5000390;28;20432;-64
2023/12/22 00:38:05;;;;;;;8.38;1.70;;;;;;;4.72;100.00;99185.72;5010756;28;20053;-65
2023/12/22 00:40:32;;;;;;;7.95;1.58;;;;;;;4.72;100.00;99178.78;5007252;28;20412;-64
2023/12/22 00:42:59;;;;;;;5.07;1.63;;;;;;;4.62;100.00;99166.22;5010892;28;20053;-64
2023/12/22 00:45:26;;;;;;;6.18;1.48;;;;;;;4.48;100.00;99161.56;5008284;28;20482;-64
2023/12/22 00:47:52;;;;;;;6.30;1.30;;;;;;;4.74;100.00;99158.81;5011078;28;20057;-64
2023/12/22 00:50:19;;;;;;;4.65;1.40;;;;;;;4.79;100.00;99163.84;5008574;28;20053;-64
2023/12/22 00:52:46;;;;;;;4.30;1.33;;;;;;;4.72;100.00;99164.97;5009260;28;20149;-64
2023/12/22 00:55:13;;;;;;;5.38;1.40;;;;;;;4.78;100.00;99172.53;5007226;28;20398;-64
2023/12/22 00:57:40;;;;;;;8.77;1.40;;;;;;;4.75;100.00;99157.09;4990789;28;20049;-64
2023/12/22 01:00:10;;;;;;;4.18;1.40;;;;;;;4.93;100.00;99166.72;5004969;28;20050;-64
2023/12/22 01:02:38;;;;;;;3.60;1.35;;;;;;;4.88;100.00;99173.00;5006667;28;20407;-64
2023/12/22 01:05:05;;;;;;;3.92;1.48;;;;;;;4.82;100.00;99155.09;5004370;28;20081;-64
2023/12/22 01:07:31;;;;;;;4.45;1.30;;;;;;;4.91;100.00;99155.56;5010699;28;20470;-64
2023/12/22 01:10:03;;;;;;;7.38;1.98;;;;;;;4.67;100.00;99147.00;5008799;28;20053;-64
2023/12/22 01:12:30;;;;;;;8.13;1.65;;;;;;;4.61;100.00;99152.44;5008070;28;20054;-64
2023/12/22 01:14:57;;;;;;;5.65;1.40;;;;;;;4.81;100.00;99182.75;5004189;28;20086;-64
2023/12/22 01:17:24;;;;;;;6.07;1.65;;;;;;;4.83;100.00;99152.44;5004318;28;20053;-64
2023/12/22 01:19:51;;;;;;;9.23;1.90;;;;;;;4.92;100.00;99161.59;5007198;28;20077;-64
2023/12/22 01:22:18;;;;;;;5.18;1.40;;;;;;;4.87;100.00;99161.78;5008147;28;20057;-64
2023/12/22 01:24:45;;;;;;;7.55;1.20;;;;;;;4.94;100.00;99170.19;5010268;28;20060;-64
2023/12/22 01:27:12;;;;;;;5.72;1.30;;;;;;;4.99;100.00;99157.84;5007904;28;20046;-64
2023/12/22 01:29:39;;;;;;;9.35;1.73;;;;;;;5.11;100.00;99175.53;5008442;28;20060;-64
2023/12/22 01:32:06;;;;;;;6.10;1.50;;;;;;;5.08;100.00;99160.09;5009061;28;20060;-63
2023/12/22 01:34:33;;;;;;;8.05;1.73;;;;;;;5.02;100.00;99156.91;5008266;28;20077;-63
2023/12/22 01:36:59;;;;;;;7.65;1.63;;;;;;;5.10;100.00;99165.22;5010105;28;20053;-64
2023/12/22 01:39:26;;;;;;;9.07;2.08;;;;;;;5.09;100.00;99166.97;5010424;28;20060;-64
2023/12/22 01:41:53;;;;;;;9.85;3.35;;;;;;;5.10;100.00;99168.66;5002378;28;20057;-64
2023/12/22 01:44:19;;;;;;;13.27;3.15;;;;;;;5.04;100.00;99161.09;5010363;28;20050;-63
2023/12/22 01:46:46;;;;;;;9.38;2.08;;;;;;;5.13;100.00;99159.91;5009688;28;20048;-63
2023/12/22 01:49:14;;;;;;;9.50;2.10;;;;;;;5.09;100.00;99163.53;5009467;28;20081;-64
2023/12/22 01:51:42;;;;;;;16.30;2.47;;;;;;;5.06;100.00;99161.88;4997055;28;20388;-63
2023/12/22 01:54:10;;;;;;;10.73;1.90;;;;;;;5.06;100.00;99167.06;5010641;28;20053;-64
2023/12/22 01:56:36;;;;;;;10.30;2.10;;;;;;;4.87;100.00;99142.78;5009244;28;20057;-64
2023/12/22 01:59:03;;;;;;;12.73;2.78;;;;;;;5.13;100.00;99154.72;5008864;28;20046;-63
2023/12/22 02:01:31;;;;;;;9.27;2.13;;;;;;;4.93;100.00;99153.75;4994794;28;20058;-64
2023/12/22 02:03:59;;;;;;;9.13;1.92;;;;;;;5.21;100.00;99154.41;4996816;28;20065;-64
2023/12/22 02:06:26;;;;;;;8.80;2.58;;;;;;;5.06;100.00;99159.28;5006116;28;20100;-64
2023/12/22 02:08:54;;;;;;;7.95;1.90;;;;;;;5.04;100.00;99163.69;5009774;28;20480;-64
2023/12/22 02:11:20;;;;;;;7.70;1.73;;;;;;;5.13;100.00;99146.94;5008479;28;20057;-64
2023/12/22 02:13:47;;;;;;;8.80;2.25;;;;;;;5.16;100.00;99141.63;5009570;28;20049;-63
2023/12/22 02:16:33;;;;;;;11.52;2.10;;;;;;;5.24;100.00;99144.75;5002312;28;20057;-63
2023/12/22 02:19:10;;;;;;;8.40;1.90;;;;;;;5.21;100.00;99133.66;5009007;28;20048;-64
2023/12/22 02:21:57;;;;;;;8.00;1.73;;;;;;;5.08;100.00;99149.72;5004094;28;20073;-64
2023/12/22 02:24:25;;;;;;;7.13;1.50;;;;;;;5.14;100.00;99151.22;5010185;28;20050;-64
2023/12/22 02:26:55;;;;;;;9.68;3.05;;;;;;;5.18;100.00;99162.31;5001659;28;20061;-64
2023/12/22 02:29:25;;;;;;;5.53;1.60;;;;;;;5.20;100.00;99147.53;4991677;28;20058;-64
2023/12/22 02:31:54;;;;;;;6.85;1.70;;;;;;;5.15;100.00;99152.88;5008978;28;20423;-63
2023/12/22 02:34:22;;;;;;;7.50;1.75;;;;;;;5.21;100.00;99144.03;5008235;28;20404;-63
2023/12/22 02:36:51;;;;;;;4.18;1.50;;;;;;;5.25;100.00;99143.81;5008276;28;20056;-64
2023/12/22 02:39:19;;;;;;;5.10;1.60;;;;;;;5.16;100.00;99133.84;5009363;28;20343;-64
2023/12/22 02:41:46;;;;;;;14.05;2.70;;;;;;;5.16;100.00;99146.81;5001802;28;20061;-64
2023/12/22 02:44:13;;;;;;;6.75;1.75;;;;;;;5.22;100.00;99143.94;5009157;28;20077;-64
2023/12/22 02:46:41;;;;;;;9.70;2.10;;;;;;;5.28;100.00;99168.81;5009749;28;20049;-64
2023/12/22 02:49:08;;;;;;;8.10;1.63;;;;;;;5.23;100.00;99147.41;5008785;28;20136;-64
2023/12/22 02:51:35;;;;;;;5.45;1.77;;;;;;;5.32;100.00;99158.25;4995322;28;20058;-63
2023/12/22 02:54:02;;;;;;;4.47;1.50;;;;;;;5.14;100.00;99135.66;5009702;28;20057;-63
2023/12/22 02:56:28;;;;;;;6.35;1.58;;;;;;;5.31;100.00;99158.28;5006946;28;20503;-63
2023/12/22 02:58:55;;;;;;;3.67;1.40;;;;;;;5.40;100.00;99154.47;5005975;28;20038;-63
2023/12/22 03:01:22;;;;;;;7.68;1.98;;;;;;;5.37;100.00;99158.06;5001877;28;20135;-63
2023/12/22 03:03:48;;;;;;;4.43;1.52;;;;;;;5.32;100.00;99147.03;5009476;28;20057;-63
2023/12/22 03:06:15;;;;;;;5.75;1.35;;;;;;;5.23;100.00;99111.91;5004261;28;20153;-63
2023/12/22 03:08:42;;;;;;;5.55;1.45;;;;;;;5.38;100.00;99127.75;4992096;28;20041;-63
2023/12/22 03:11:08;;;;;;;4.55;1.30;;;;;;;5.37;100.00;99142.50;4998517;28;20113;-63
2023/12/22 03:13:35;;;;;;;7.90;1.50;;;;;;;5.40;100.00;99146.69;5006338;28;20080;-63
2023/12/22 03:16:02;;;;;;;6.95;1.40;;;;;;;5.40;100.00;99144.97;5002642;28;20050;-63
2023/12/22 03:18:28;;;;;;;6.38;1.95;;;;;;;5.40;100.00;99134.59;5008518;28;20096;-64
2023/12/22 03:20:55;;;;;;;5.70;1.35;;;;;;;5.40;100.00;99132.00;5006080;28;20045;-63
2023/12/22 03:23:22;;;;;;;6.20;1.50;;;;;;;5.33;100.00;99122.78;5012552;28;20384;-63
2023/12/22 03:25:48;;;;;;;6.30;1.73;;;;;;;5.48;100.00;99135.09;4991127;28;20057;-64
2023/12/22 03:28:15;;;;;;;6.28;1.48;;;;;;;5.31;100.00;99140.13;5011239;28;20050;-63
2023/12/22 03:30:42;;;;;;;8.00;1.60;;;;;;;5.38;100.00;99132.94;5009912;28;20145;-63
2023/12/22 03:33:09;;;;;;;3.72;1.33;;;;;;;5.47;100.00;99145.53;5010451;28;20076;-63
2023/12/22 03:35:35;;;;;;;4.13;1.65;;;;;;;5.44;100.00;99125.75;5003207;28;20057;-63
2023/12/22 03:38:03;;;;;;;3.33;1.38;;;;;;;5.43;100.00;99113.66;5013272;28;20048;-63
2023/12/22 03:40:30;;;;;;;5.53;1.20;;;;;;;5.45;100.00;99111.00;5007053;28;20054;-63
2023/12/22 03:42:56;;;;;;;12.77;2.40;;;;;;;5.37;100.00;99126.09;5012930;28;20088;-63
2023/12/22 03:45:23;;;;;;;3.72;1.17;;;;;;;5.39;100.00;99104.34;5011660;28;20470;-63
2023/12/22 03:47:50;;;;;;;2.03;1.17;;;;;;;5.46;100.00;99107.50;5011616;28;20050;-63
2023/12/22 03:50:18;;;;;;;2.75;1.10;;;;;;;5.44;100.00;99112.78;5005813;28;20053;-63
2023/12/22 03:52:44;;;;;;;4.05;1.30;;;;;;;5.11;100.00;99096.84;5004476;28;20061;-63
2023/12/22 03:55:11;;;;;;;4.53;1.73;;;;;;;5.32;100.00;99095.94;5012505;28;20472;-63
2023/12/22 03:57:38;;;;;;;3.47;1.10;;;;;;;5.41;100.00;99102.50;5012396;28;20403;-63
2023/12/22 04:00:05;;;;;;;3.22;1.20;;;;;;;5.45;100.00;99098.03;5008913;28;20058;-63
2023/12/22 04:02:32;;;;;;;5.93;1.15;;;;;;;5.37;100.00;99110.50;5000843;28;20068;-64
2023/12/22 04:04:58;;;;;;;2.40;1.02;;;;;;;5.21;100.00;99092.97;5012367;28;20061;-63
2023/12/22 04:07:25;;;;;;;3.28;1.17;;;;;;;5.33;100.00;99108.03;5008052;28;20133;-63
2023/12/22 04:09:52;;;;;;;3.05;1.10;;;;;;;5.33;100.00;99087.28;5002320;28;20141;-63
2023/12/22 04:12:19;;;;;;;1.40;0.90;;;;;;;5.31;100.00;99102.06;5010228;28;20058;-63
2023/12/22 04:14:45;;;;;;;2.78;1.00;;;;;;;5.18;100.00;99064.56;5010513;28;20038;-63
2023/12/22 04:17:12;;;;;;;2.00;1.00;;;;;;;5.23;100.00;99098.09;5015042;28;20050;-63
2023/12/22 04:19:39;;;;;;;1.52;0.93;;;;;;;5.14;100.00;99092.38;5011325;28;20056;-63
2023/12/22 04:22:05;;;;;;;4.03;1.17;;;;;;;5.20;100.00;99085.25;5009379;28;20057;-63
2023/12/22 04:24:32;;;;;;;1.38;0.88;;;;;;;5.20;100.00;99088.69;5012212;28;20077;-63
2023/12/22 04:26:59;;;;;;;1.30;0.88;;;;;;;5.17;100.00;99096.63;5002996;28;20053;-63
2023/12/22 04:29:25;;;;;;;1.23;0.90;;;;;;;5.25;100.00;99091.94;4991695;28;20038;-63
2023/12/22 04:31:52;;;;;;;2.97;1.15;;;;;;;5.16;100.00;99086.28;4988037;28;20440;-63
2023/12/22 04:34:19;;;;;;;1.80;1.00;;;;;;;5.29;100.00;99085.72;5011664;28;20062;-63
2023/12/22 04:36:46;;;;;;;1.65;0.90;;;;;;;5.09;100.00;99076.16;5006243;28;20131;-63
2023/12/22 04:39:13;;;;;;;2.58;1.00;;;;;;;5.07;100.00;99064.16;5007535;28;20053;-63
2023/12/22 04:41:40;;;;;;;2.10;0.90;;;;;;;5.01;100.00;99065.28;5006564;28;20050;-63
2023/12/22 04:44:06;;;;;;;1.55;0.90;;;;;;;5.23;100.00;99085.13;4992954;28;20550;-63
2023/12/22 04:46:33;;;;;;;1.85;1.25;;;;;;;5.09;100.00;99073.56;5009334;28;20060;-63
2023/12/22 04:49:01;;;;;;;0.93;0.85;;;;;;;5.13;100.00;99059.56;5011184;28;20049;-63
2023/12/22 04:51:28;;;;;;;3.20;1.00;;;;;;;5.23;100.00;99060.03;5007762;28;20053;-63
2023/12/22 04:53:55;;;;;;;2.72;1.00;;;;;;;5.09;100.00;99080.50;5011907;28;20467;-64
2023/12/22 04:56:22;;;;;;;2.00;0.95;;;;;;;4.98;100.00;99074.94;4992026;28;20053;-63
2023/12/22 04:58:48;;;;;;;3.72;0.95;;;;;;;5.10;100.00;99064.88;5008973;28;20038;-64
2023/12/22 05:01:15;;;;;;;1.48;0.93;;;;;;;5.12;100.00;99072.59;5009787;28;20136;-63
2023/12/22 05:03:42;;;;;;;1.40;0.93;;;;;;;5.16;100.00;99068.97;5012559;28;20053;-63
2023/12/22 05:06:09;;;;;;;2.22;0.90;;;;;;;5.09;100.00;99065.78;4998221;28;20050;-63
2023/12/22 05:08:36;;;;;;;1.52;0.90;;;;;;;5.22;100.00;99054.88;5009644;28;20468;-63
2023/12/22 05:11:03;;;;;;;2.45;1.30;;;;;;;5.21;100.00;99071.38;5014630;28;20084;-63
2023/12/22 05:13:29;;;;;;;1.00;0.90;;;;;;;5.12;100.00;99049.25;5009995;28;20141;-63
2023/12/22 05:15:56;;;;;;;2.47;1.10;;;;;;;5.08;100.00;99076.22;5005404;28;20081;-63
2023/12/22 05:18:24;;;;;;;1.88;0.90;;;;;;;5.12;100.00;99077.78;4998707;28;20046;-63
2023/12/22 05:20:52;;;;;;;2.38;0.90;;;;;;;4.97;100.00;99057.66;4990679;28;20089;-63
2023/12/22 05:23:19;;;;;;;2.65;1.02;;;;;;;5.08;100.00;99055.47;4991624;28;20051;-63
2023/12/22 05:25:46;;;;;;;2.65;1.02;;;;;;;5.07;100.00;99075.38;4974798;28;20042;-63
2023/12/22 05:28:12;;;;;;;0.98;0.80;;;;;;;5.10;100.00;99080.47;4990272;28;20626;-63
2023/12/22 05:30:39;;;;;;;3.63;1.00;;;;;;;5.02;100.00;99064.34;4995928;28;20050;-63
2023/12/22 05:33:05;;;;;;;1.27;0.90;;;;;;;5.20;100.00;99072.28;4976978;28;20046;-63
2023/12/22 05:35:32;;;;;;;1.40;0.93;;;;;;;5.24;100.00;99060.84;4994944;28;20050;-63
2023/12/22 05:38:02;;;;;;;1.00;0.80;;;;;;;5.21;100.00;99069.63;4991143;28;20484;-63
2023/12/22 05:40:31;;;;;;;1.80;1.00;;;;;;;5.25;100.00;99054.75;4989420;28;20112;-63
2023/12/22 05:42:58;;;;;;;1.50;0.98;;;;;;;5.19;100.00;99055.00;4991925;28;20042;-63
2023/12/22 05:45:24;;;;;;;2.53;0.88;;;;;;;5.20;100.00;99067.09;4995724;28;20492;-63
2023/12/22 05:47:53;;;;;;;1.17;0.88;;;;;;;5.20;100.00;99060.13;4994838;28;20390;-63
2023/12/22 05:50:20;;;;;;;1.27;1.00;;;;;;;5.26;100.00;99067.69;4992301;28;20049;-63
2023/12/22 05:52:47;;;;;;;2.13;0.85;;;;;;;5.27;100.00;99086.69;4991465;28;20061;-64
2023/12/22 05:55:14;;;;;;;2.28;1.15;;;;;;;5.29;100.00;99088.31;4991566;28;20085;-63
2023/12/22 05:57:40;;;;;;;2.25;1.08;;;;;;;5.25;100.00;99070.34;4989528;28;20051;-63
2023/12/22 06:00:09;;;;;;;1.58;0.90;;;;;;;5.22;100.00;99054.88;4996276;28;20046;-63
2023/12/22 06:02:36;;;;;;;1.65;0.90;;;;;;;5.17;100.00;99056.84;5010101;28;20060;-63
2023/12/22 06:05:03;;;;;;;0.80;0.80;;;;;;;5.27;100.00;99068.50;5000591;28;20408;-63
2023/12/22 06:07:30;;;;;;;1.05;0.90;;;;;;;5.27;100.00;99081.50;5010233;28;20053;-63
2023/12/22 06:09:57;;;;;;;1.60;0.98;;;;;;;5.23;100.00;99064.38;5007657;28;20050;-63
2023/12/22 06:12:23;;;;;;;1.42;0.90;;;;;;;5.25;100.00;99058.19;4993450;28;20050;-63
2023/12/22 06:14:50;;;;;;;2.15;0.90;;;;;;;5.21;100.00;99051.47;5003407;28;20053;-63
2023/12/22 06:17:16;;;;;;;2.90;1.02;;;;;;;5.29;100.00;99067.56;4999253;28;20050;-63
2023/12/22 06:19:43;;;;;;;1.48;0.90;;;;;;;5.21;100.00;99085.19;5003420;28;20046;-63
2023/12/22 06:22:10;;;;;;;1.00;0.90;;;;;;;5.21;100.00;99089.53;5007833;28;20534;-63
2023/12/22 06:24:36;;;;;;;1.23;1.00;;;;;;;5.17;100.00;99081.03;4997379;28;20046;-63
2023/12/22 06:27:03;;;;;;;2.97;0.90;;;;;;;5.02;100.00;99069.53;5004874;28;20488;-63
2023/12/22 06:29:31;;;;;;;2.42;1.25;;;;;;;4.91;100.00;99031.09;5001777;28;20074;-63
2023/12/22 06:31:58;;;;;;;1.75;0.90;;;;;;;5.13;100.00;99084.66;5000091;28;20427;-63
2023/12/22 06:34:25;;;;;;;1.10;0.90;;;;;;;5.08;100.00;99087.47;4993053;28;20132;-63
2023/12/22 06:36:52;;;;;;;1.45;0.90;;;;;;;5.06;100.00;99099.63;4997427;28;20488;-63
2023/12/22 06:39:19;;;;;;;1.17;0.90;;;;;;;5.04;100.00;99113.56;4995037;28;20051;-63
2023/12/22 06:41:46;;;;;;;1.63;0.90;;;;;;;5.12;100.00;99094.19;4991095;28;20473;-63
2023/12/22 06:44:13;;;;;;;1.13;1.02;;;;;;;5.10;100.00;99088.22;4993025;28;20042;-64
2023/12/22 06:46:39;;;;;;;1.02;0.80;;;;;;;5.18;100.00;99100.03;4995216;28;20058;-63
2023/12/22 06:49:06;;;;;;;1.48;0.85;;;;;;;5.05;100.00;99082.38;5006759;28;20045;-63
2023/12/22 06:51:36;;;;;;;0.88;0.80;;;;;;;5.10;100.00;99088.22;5004510;28;20050;-63
2023/12/22 06:54:04;;;;;;;1.27;0.93;;;;;;;5.04;100.00;99087.63;5004315;28;20400;-63
2023/12/22 06:56:34;;;;;;;3.03;1.00;;;;;;;5.07;100.00;99082.34;5002558;28;20423;-63
2023/12/22 06:59:01;;;;;;;1.52;0.90;;;;;;;5.00;100.00;99079.13;5005762;28;20039;-63
2023/12/22 07:01:29;;;;;;;1.73;0.90;;;;;;;4.99;100.00;99064.47;5007606;28;20050;-63
2023/12/22 07:03:57;;;;;;;1.02;0.88;;;;;;;5.00;100.00;99042.81;5002882;28;20484;-63
2023/12/22 07:06:26;;;;;;;2.28;1.20;;;;;;;4.98;100.00;99060.22;5003680;28;20052;-63
2023/12/22 07:09:14;;;;;;;1.02;0.85;;;;;;;5.09;100.00;99076.16;4999922;28;20125;-63
2023/12/22 07:11:43;;;;;;;1.23;0.95;;;;;;;4.95;100.00;99070.69;4996938;28;20054;-63
2023/12/22 07:14:09;;;;;;;1.00;0.90;;;;;;;4.94;100.00;99076.81;4999362;28;20085;-63
2023/12/22 07:16:38;;;;;;;1.55;0.98;;;;;;;4.74;100.00;99077.59;5009081;28;20103;-63
2023/12/22 07:19:05;;;;;;;3.25;1.10;;;;;;;4.98;100.00;99098.28;5010103;28;20049;-63
2023/12/22 07:21:32;;;;;;;1.55;1.00;;;;;;;4.99;100.00;99097.34;5005694;28;20440;-63
2023/12/22 07:23:58;;;;;;;1.00;0.90;;;;;;;4.99;100.00;99086.97;5007842;28;20049;-64
2023/12/22 07:26:27;;;;;;;1.70;1.00;;;;;;;4.97;100.00;99089.63;4994717;28;20049;-63
2023/12/22 07:28:54;;;;;;;1.00;0.90;;;;;;;5.00;100.00;99101.66;5007245;28;20404;-63
2023/12/22 07:31:21;;;;;;;0.70;0.70;;;;;;;4.94;100.00;99094.97;4998399;28;20109;-63
2023/12/22 07:33:48;;;;;;;1.02;0.80;;;;;;;4.91;100.00;99092.50;5007238;28;20202;-63
2023/12/22 07:36:14;;;;;;;0.82;0.82;;;;;;;5.00;100.00;99092.09;4997012;28;20050;-63
2023/12/22 07:38:41;;;;;;;1.23;0.90;;;;;;;4.98;100.00;99086.16;4997185;28;20054;-63
2023/12/22 07:41:08;;;;;;;1.30;0.90;;;;;;;5.01;100.00;99095.53;4992911;28;20058;-63
2023/12/22 07:43:37;;;;;;;0.80;0.80;;;;;;;5.04;100.00;99092.81;4976829;28;20727;-63
2023/12/22 07:46:04;;;;;;;1.33;0.90;;;;;;;5.00;100.00;99094.69;5001742;28;20407;-63
2023/12/22 07:48:31;;;;;;;0.80;0.80;;;;;;;5.00;100.00;99106.84;5005050;28;20050;-63
2023/12/22 07:50:58;;;;;;;2.95;0.90;;;;;;;4.97;100.00;99106.94;4998285;28;20050;-63
2023/12/22 07:53:25;;;;;;;0.88;0.80;;;;;;;5.06;100.00;99115.19;4991876;28;20051;-63
2023/12/22 07:55:52;;;;;;;1.00;0.90;;;;;;;5.03;100.00;99114.47;5005747;28;20058;-63
2023/12/22 07:58:19;;;;;;;1.00;0.90;;;;;;;5.05;100.00;99100.56;5002062;28;20153;-63
2023/12/22 08:00:46;;;;;;;0.80;0.80;;;;;;;5.11;100.00;99102.03;5003927;28;20054;-63
2023/12/22 08:03:13;;;;;;;1.17;0.90;;;;;;;5.01;100.00;99106.78;5011870;28;20100;-63
2023/12/22 08:05:39;;;;;;;1.00;0.90;;;;;;;4.75;100.00;99067.16;5011036;28;20054;-64
2023/12/22 08:08:06;;;;;;;1.45;0.90;;;;;;;4.99;100.00;99118.09;5002168;28;20054;-63
2023/12/22 08:10:33;;;;;;;1.05;0.90;;;;;;;5.02;100.00;99115.41;5000469;28;20089;-63
2023/12/22 08:13:00;;;;;;;3.00;0.90;;;;;;;5.04;100.00;99121.38;4992852;28;20492;-63
2023/12/22 08:15:26;;;;;;;1.20;0.80;;;;;;;5.08;100.00;99117.72;5007062;28;20042;-63
2023/12/22 08:18:02;;;;;;;1.05;0.95;;;;;;;5.07;100.00;99118.66;5024837;28;20056;-63
2023/12/22 08:20:29;;;;;;;0.98;0.88;;;;;;;5.12;100.00;99130.53;5005250;28;20057;-63
2023/12/22 08:23:02;;;;;;;1.00;0.90;;;;;;;5.18;100.00;99145.00;5007756;28;20092;-64
2023/12/22 08:25:35;;;;;;;1.00;0.90;;;;;;;5.17;100.00;99135.53;5007624;28;20128;-63
2023/12/22 08:28:02;;;;;;;1.00;0.90;;;;;;;5.17;100.00;99140.72;4998645;28;20046;-63
2023/12/22 08:30:29;;;;;;;0.80;0.80;;;;;;;5.09;100.00;99135.81;5002832;28;20079;-63
2023/12/22 08:32:56;;;;;;;1.75;0.90;;;;;;;5.09;100.00;99137.59;5018457;28;20136;-63
2023/12/22 08:35:23;;;;;;;1.40;0.90;;;;;;;5.14;100.00;99127.88;4994782;28;20050;-63
2023/12/22 08:37:49;;;;;;;1.20;0.90;;;;;;;5.26;100.00;99137.75;5002506;28;20145;-63
2023/12/22 08:40:17;;;;;;;1.85;1.20;;;;;;;5.20;100.00;99131.97;5005345;28;20054;-63
2023/12/22 08:42:43;;;;;;;1.25;0.90;;;;;;;5.21;100.00;99129.31;5008711;28;20555;-63
2023/12/22 08:45:10;;;;;;;0.98;0.90;;;;;;;5.13;100.00;99128.75;4993715;28;20510;-63
2023/12/22 08:47:37;;;;;;;2.17;1.00;;;;;;;5.19;100.00;99122.47;4998580;28;20057;-63
2023/12/22 08:50:07;;;;;;;2.60;1.00;;;;;;;5.20;100.00;99112.03;4990037;28;20105;-63
2023/12/22 08:52:35;;;;;;;2.75;1.10;;;;;;;5.14;100.00;99113.13;5001571;28;20140;-65
2023/12/22 08:55:01;;;;;;;1.42;0.93;;;;;;;5.18;100.00;99115.63;4992511;28;20053;-63
2023/12/22 08:57:28;;;;;;;1.42;0.90;;;;;;;5.33;100.00;99117.59;4994543;28;20069;-64
2023/12/22 08:59:55;;;;;;;1.90;0.90;;;;;;;5.28;100.00;99111.75;4994286;28;20042;-63
2023/12/22 09:02:22;;;;;;;1.80;0.93;;;;;;;5.35;100.00;99118.34;5010720;28;20507;-64
2023/12/22 09:04:48;;;;;;;1.30;0.80;;;;;;;5.40;100.00;99129.38;5006723;28;20064;-64
2023/12/22 09:07:15;;;;;;;1.00;0.90;;;;;;;5.35;100.00;99117.50;4999813;28;20053;-64
2023/12/22 09:09:42;;;;;;;2.85;1.27;;;;;;;5.50;100.00;99135.84;4999668;28;20050;-64
2023/12/22 09:12:08;;;;;;;2.53;0.90;;;;;;;5.42;100.00;99137.09;5008081;28;20064;-64
2023/12/22 09:14:35;;;;;;;4.28;1.05;;;;;;;5.00;100.00;99107.66;4993372;28;20058;-64
2023/12/22 09:17:02;;;;;;;2.00;1.10;;;;;;;5.45;100.00;99150.81;5003416;28;20049;-64
2023/12/22 09:19:33;;;;;;;2.63;1.05;;;;;;;5.60;100.00;99164.06;5008156;28;20061;-64
2023/12/22 09:22:00;;;;;;;4.43;1.08;;;;;;;5.57;100.00;99159.81;4995241;28;20466;-64
2023/12/22 09:24:27;;;;;;;2.67;1.15;;;;;;;5.66;100.00;99148.19;4994908;28;20054;-64
2023/12/22 09:26:54;;;;;;;4.57;1.38;;;;;;;5.58;100.00;99129.50;5001590;28;20046;-64
2023/12/22 09:29:21;;;;;;;3.55;1.27;;;;;;;5.57;100.00;99148.59;4998090;28;20061;-64
2023/12/22 09:31:48;;;;;;;4.78;1.85;;;;;;;5.66;100.00;99138.66;4982920;28;20062;-65
2023/12/22 09:34:15;;;;;;;4.40;1.25;;;;;;;5.75;100.00;99155.59;5007038;28;20523;-64
2023/12/22 09:36:41;;;;;;;2.65;1.00;;;;;;;5.85;100.00;99149.09;5004959;28;20492;-64
2023/12/22 09:39:08;;;;;;;1.42;1.00;;;;;;;5.87;100.00;99147.25;5002310;28;20054;-64
2023/12/22 09:41:35;;;;;;;2.88;1.10;;;;;;;5.83;100.00;99156.09;5004243;28;20396;-64
2023/12/22 09:44:05;;;;;;;3.63;1.13;;;;;;;5.88;100.00;99143.75;5010081;28;20068;-64
2023/12/22 09:46:34;;;;;;;6.50;2.72;;;;;;;5.89;100.00;99162.78;5009687;28;20147;-64
2023/12/22 09:49:01;;;;;;;2.65;1.10;;;;;;;5.84;100.00;99150.00;5010270;28;20053;-64
2023/12/22 09:51:30;;;;;;;4.85;1.00;;;;;;;5.93;100.00;99147.91;5000134;28;20050;-64
2023/12/22 09:53:58;;;;;;;2.15;1.05;;;;;;;5.79;100.00;99153.69;5007443;28;20085;-64
2023/12/22 09:56:29;;;;;;;5.88;1.20;;;;;;;5.89;100.00;99144.59;5006340;28;20092;-64
2023/12/22 09:58:56;;;;;;;2.85;1.17;;;;;;;5.90;100.00;99133.31;5003585;28;20058;-64
2023/12/22 10:01:24;;;;;;;4.30;1.58;;;;;;;5.85;100.00;99132.66;4996758;28;20050;-64
2023/12/22 10:03:51;;;;;;;3.20;1.17;;;;;;;5.73;100.00;99147.03;5004069;28;20145;-64
2023/12/22 10:06:19;;;;;;;2.30;1.00;;;;;;;5.79;100.00;99138.13;5005488;28;20046;-64
2023/12/22 10:08:50;;;;;;;5.30;1.20;;;;;;;5.99;100.00;99171.06;5006387;28;20054;-64
2023/12/22 10:11:18;;;;;;;6.47;2.03;;;;;;;5.92;100.00;99170.47;4988049;28;20499;-64
2023/12/22 10:13:45;;;;;;;4.68;1.20;;;;;;;6.08;100.00;99170.66;5009827;28;20057;-65
2023/12/22 10:16:12;;;;;;;2.60;1.02;;;;;;;5.97;100.00;99162.50;5006743;28;20140;-65
2023/12/22 10:18:39;;;;;;;4.93;1.00;;;;;;;5.91;100.00;99147.97;5009938;28;20045;-64
2023/12/22 10:21:06;;;;;;;2.97;1.20;;;;;;;6.12;100.00;99187.78;4997159;28;20082;-65
2023/12/22 10:23:33;;;;;;;3.17;1.48;;;;;;;5.97;100.00;99183.28;5000649;28;20069;-65
2023/12/22 10:26:01;;;;;;;4.05;1.40;;;;;;;5.98;100.00;99191.00;5002392;28;20116;-63
2023/12/22 10:28:28;;;;;;;3.33;1.10;;;;;;;6.11;100.00;99174.88;4995172;28;20104;-64
2023/12/22 10:30:57;;;;;;;3.85;1.15;;;;;;;6.10;100.00;99183.59;4995970;28;20042;-64
2023/12/22 10:33:23;;;;;;;4.03;1.33;;;;;;;6.17;100.00;99179.81;4997434;28;20068;-64
2023/12/22 10:35:52;;;;;;;3.55;1.20;;;;;;;6.08;100.00;99184.47;5008485;28;20555;-64
2023/12/22 10:38:19;;;;;;;4.38;1.30;;;;;;;6.15;100.00;99197.22;5005948;28;20488;-63
2023/12/22 10:40:47;;;;;;;2.70;1.10;;;;;;;6.03;100.00;99189.03;4994448;28;20484;-64
2023/12/22 10:43:15;;;;;;;4.30;1.10;;;;;;;6.13;100.00;99168.69;5006089;28;20049;-63
2023/12/22 10:45:42;;;;;;;6.57;1.20;;;;;;;6.26;100.00;99195.81;4996066;28;20045;-64
2023/12/22 10:48:10;;;;;;;3.33;1.25;;;;;;;6.20;100.00;99200.47;5004935;28;20443;-65
2023/12/22 10:50:39;;;;;;;5.88;1.30;;;;;;;6.04;100.00;99195.09;4992497;28;20374;-64
2023/12/22 10:53:06;;;;;;;3.58;1.30;;;;;;;6.20;100.00;99193.50;5005636;28;20417;-64
2023/12/22 10:55:34;;;;;;;6.72;1.50;;;;;;;6.20;100.00;99192.69;4998769;28;20058;-64
2023/12/22 10:58:03;;;;;;;5.00;1.38;;;;;;;6.04;100.00;99175.16;5004707;28;20377;-64
2023/12/22 11:00:36;;;;;;;6.88;1.20;;;;;;;6.05;100.00;99192.41;4996600;28;20065;-64
2023/12/22 11:03:08;;;;;;;4.82;1.20;;;;;;;5.98;100.00;99196.19;5004855;28;20045;-65
2023/12/22 11:05:36;;;;;;;4.15;1.30;;;;;;;6.22;100.00;99207.28;4991184;28;20145;-64
2023/12/22 11:08:08;;;;;;;2.15;1.00;;;;;;;6.29;100.00;99191.44;5004720;28;20099;-64
2023/12/22 11:10:39;;;;;;;3.58;1.30;;;;;;;6.18;100.00;99195.34;4998766;28;20443;-64
2023/12/22 11:13:07;;;;;;;5.88;1.35;;;;;;;6.33;100.00;99188.59;5005271;28;20053;-64
2023/12/22 11:15:34;;;;;;;5.95;1.35;;;;;;;6.05;100.00;99183.78;4994906;28;20062;-64
2023/12/22 11:18:01;;;;;;;8.98;1.58;;;;;;;6.19;100.00;99188.38;5006746;28;20133;-64
2023/12/22 11:20:32;;;;;;;5.32;2.10;;;;;;;6.15;100.00;99195.47;5002461;28;20057;-64
2023/12/22 11:23:02;;;;;;;6.18;2.00;;;;;;;6.27;100.00;99204.47;5003538;28;20061;-64
2023/12/22 11:25:31;;;;;;;6.10;1.55;;;;;;;6.19;100.00;99214.38;5001996;28;20489;-63
2023/12/22 11:27:59;;;;;;;4.65;1.58;;;;;;;6.28;100.00;99208.75;4998974;28;20104;-64
2023/12/22 11:30:26;;;;;;;4.05;1.35;;;;;;;6.43;100.00;99212.44;5001027;28;20048;-63
2023/12/22 11:32:54;;;;;;;6.28;1.30;;;;;;;6.36;100.00;99214.47;4996805;28;20073;-64
2023/12/22 11:35:23;;;;;;;2.72;1.10;;;;;;;6.32;100.00;99218.13;4996861;28;20056;-64